Terminal Aerodrome Forecast
Issued by NWS

Home | Current Version | Previous Version | Text Only | Print | Product List | Glossary On
Versions: 1 2 3 4 5 6 7 8 9 10 11 12 13
000
FTUS46 KHNX 242320
TAFMCE
TAF
KMCE 242320Z 2500/2524 14006KT P6SM SKC
     FM251500 13011KT P6SM SCT050 BKN100
     FM251800 15014G21KT P6SM BKN250
     FM252200 22010KT P6SM SCT250=

USA.gov is the U.S. government's official web portal to all federal, state and local government web resources and services.